Time,TemperatureF,DewpointF,PressureIn,WindDirection,WindDirectionDegrees,WindSpeedMPH,WindSpeedGustMPH,Humidity,HourlyPrecipIn,Conditions,Clouds,dailyrainin,SolarRadiationWatts/m^2,SoftwareType,DateUTC
2013-02-25 00:00:00,56.1,47.6,30.05,NNW,338,3.5,3.5,73,0.00,FEW,,0.00,0.0,WeatherDisplay:10.37,2013-02-24 22:00:00,
2013-02-25 00:05:00,56.1,47.6,30.06,North,0,1.1,1.1,73,0.00,FEW,,0.00,0.0,WeatherDisplay:10.37,2013-02-24 22:05:00,
2013-02-25 00:10:00,56.1,47.6,30.05,NNW,338,2.3,2.3,73,0.00,FEW,,0.00,0.0,WeatherDisplay:10.37,2013-02-24 22:10:00,
2013-02-25 00:15:00,56.1,47.6,30.06,NNW,338,0.0,0.0,73,0.00,FEW,,0.00,0.0,WeatherDisplay:10.37,2013-02-24 22:15:00,
2013-02-25 00:20:00,55.9,47.4,30.06,NNW,338,0.0,0.0,73,0.00,FEW,,0.00,0.0,WeatherDisplay:10.37,2013-02-24 22:20:00,
2013-02-25 00:25:00,55.9,47.4,30.06,North,0,0.0,0.0,73,0.00,FEW,,0.00,0.0,WeatherDisplay:10.37,2013-02-24 22:25:00,
2013-02-25 00:30:00,55.9,47.4,30.05,NE,45,0.0,0.0,73,0.00,FEW,,0.00,0.0,WeatherDisplay:10.37,2013-02-24 22:30:00,
2013-02-25 00:35:00,55.9,47.4,30.05,NNW,338,2.3,2.3,73,0.00,FEW,,0.00,0.0,WeatherDisplay:10.37,2013-02-24 22:35:00,
2013-02-25 00:40:00,55.8,47.2,30.05,North,0,2.3,2.3,73,0.00,FEW,,0.00,0.0,WeatherDisplay:10.37,2013-02-24 22:40:00,
2013-02-25 00:45:00,55.8,47.6,30.05,North,0,3.5,3.5,74,0.00,FEW,,0.00,0.0,WeatherDisplay:10.37,2013-02-24 22:45:00,
2013-02-25 00:50:00,55.8,47.6,30.06,North,0,2.3,2.3,74,0.00,FEW,,0.00,0.0,WeatherDisplay:10.37,2013-02-24 22:50:00,
2013-02-25 00:55:00,55.6,47.4,30.06,North,0,1.8,1.8,74,0.00,FEW,,0.00,0.0,WeatherDisplay:10.37,2013-02-24 22:55:00,
2013-02-25 01:00:00,55.4,47.6,30.05,North,0,2.3,2.3,75,0.00,FEW,,0.00,0.0,WeatherDisplay:10.37,2013-02-24 23:00:00,
2013-02-25 01:05:00,55.4,47.6,30.06,NNE,22,3.5,3.5,75,0.00,CLR,,0.00,0.0,WeatherDisplay:10.37,2013-02-24 23:05:00,
2013-02-25 01:10:00,55.4,48.0,30.06,East,90,0.0,0.0,76,0.00,CLR,,0.00,0.0,WeatherDisplay:10.37,2013-02-24 23:10:00,
2013-02-25 01:15:00,55.4,48.3,30.05,North,0,3.5,3.5,77,0.00,CLR,,0.00,0.0,WeatherDisplay:10.37,2013-02-24 23:15:00,
2013-02-25 01:20:00,55.4,48.3,30.06,North,0,1.8,0.0,77,0.00,CLR,,0.00,0.0,WeatherDisplay:10.37,2013-02-24 23:20:00,
2013-02-25 01:25:00,55.4,48.7,30.06,NNW,338,4.5,4.5,78,0.00,CLR,,0.00,0.0,WeatherDisplay:10.37,2013-02-24 23:25:00,
2013-02-25 01:30:00,55.6,48.8,30.05,NE,45,0.0,0.0,78,0.00,CLR,,0.00,0.0,WeatherDisplay:10.37,2013-02-24 23:30:00,
2013-02-25 01:35:00,55.6,48.8,30.05,NNW,338,3.5,3.5,78,0.00,CLR,,0.00,0.0,WeatherDisplay:10.37,2013-02-24 23:35:00,
2013-02-25 01:40:00,55.6,49.2,30.05,NNW,338,4.6,4.6,79,0.00,CLR,,0.00,0.0,WeatherDisplay:10.37,2013-02-24 23:40:00,
2013-02-25 01:45:00,55.6,49.2,30.05,NNW,338,3.5,3.5,79,0.00,CLR,,0.00,0.0,WeatherDisplay:10.37,2013-02-24 23:45:00,
2013-02-25 01:50:00,55.6,49.2,30.05,North,0,3.5,3.5,79,0.00,CLR,,0.00,0.0,WeatherDisplay:10.37,2013-02-24 23:50:00,
2013-02-25 01:55:00,55.6,49.2,30.05,North,0,0.0,0.0,79,0.00,CLR,,0.00,0.0,WeatherDisplay:10.37,2013-02-24 23:55:00,
2013-02-25 02:00:00,55.6,49.2,30.05,North,0,2.3,2.3,79,0.00,CLR,,0.00,0.0,WeatherDisplay:10.37,2013-02-25 00:00:00,
2013-02-25 02:05:00,55.4,49.3,30.05,North,0,3.5,3.5,80,0.00,CLR,,0.00,0.0,WeatherDisplay:10.37,2013-02-25 00:05:00,
2013-02-25 02:10:00,55.2,49.2,30.05,North,0,1.1,1.1,80,0.00,CLR,,0.00,0.0,WeatherDisplay:10.37,2013-02-25 00:10:00,
2013-02-25 02:15:00,55.2,49.2,30.05,North,0,2.3,2.3,80,0.00,CLR,,0.00,0.0,WeatherDisplay:10.37,2013-02-25 00:15:00,
2013-02-25 02:20:00,55.0,49.0,30.05,NNW,338,0.0,0.0,80,0.00,CLR,,0.00,0.0,WeatherDisplay:10.37,2013-02-25 00:20:00,
2013-02-25 02:25:00,54.9,49.1,30.05,North,0,1.1,1.1,81,0.00,CLR,,0.00,0.0,WeatherDisplay:10.37,2013-02-25 00:25:00,
2013-02-25 02:30:00,54.7,49.0,30.04,NNE,22,2.3,2.3,81,0.00,CLR,,0.00,0.0,WeatherDisplay:10.37,2013-02-25 00:30:00,
2013-02-25 02:35:00,54.7,49.0,30.04,NNE,22,0.0,0.0,81,0.00,CLR,,0.00,0.0,WeatherDisplay:10.37,2013-02-25 00:35:00,
2013-02-25 02:40:00,54.7,49.3,30.04,NE,45,0.0,0.0,82,0.00,CLR,,0.00,0.0,WeatherDisplay:10.37,2013-02-25 00:40:00,
2013-02-25 02:45:00,54.5,49.1,30.04,NE,45,0.0,0.0,82,0.00,CLR,,0.00,0.0,WeatherDisplay:10.37,2013-02-25 00:45:00,
2013-02-25 02:50:00,54.3,49.3,30.04,NE,45,0.0,0.0,83,0.00,CLR,,0.00,0.0,WeatherDisplay:10.37,2013-02-25 00:50:00,
2013-02-25 02:55:00,54.3,49.3,30.03,NNE,22,1.1,1.1,83,0.00,CLR,,0.00,0.0,WeatherDisplay:10.37,2013-02-25 00:55:00,
2013-02-25 03:00:00,54.3,49.3,30.03,North,0,0.0,0.0,83,0.00,CLR,,0.00,0.0,WeatherDisplay:10.37,2013-02-25 01:00:00,
2013-02-25 03:05:00,54.3,49.3,30.03,NE,45,0.0,0.0,83,0.00,SCT,,0.00,0.0,WeatherDisplay:10.37,2013-02-25 01:05:00,
2013-02-25 03:10:00,54.3,49.3,30.03,NE,45,0.0,0.0,83,0.00,SCT,,0.00,0.0,WeatherDisplay:10.37,2013-02-25 01:10:00,
2013-02-25 03:15:00,54.3,49.6,30.03,NNW,338,3.5,3.5,84,0.00,SCT,,0.00,0.0,WeatherDisplay:10.37,2013-02-25 01:15:00,
2013-02-25 03:20:00,54.3,49.6,30.03,NNW,338,1.1,1.1,84,0.00,SCT,,0.00,0.0,WeatherDisplay:10.37,2013-02-25 01:20:00,
2013-02-25 03:25:00,54.3,49.6,30.03,North,0,1.1,1.1,84,0.00,SCT,,0.00,0.0,WeatherDisplay:10.37,2013-02-25 01:25:00,
2013-02-25 03:30:00,54.3,49.6,30.03,North,0,3.5,3.5,84,0.00,SCT,,0.00,0.0,WeatherDisplay:10.37,2013-02-25 01:30:00,
2013-02-25 03:35:00,54.3,49.6,30.03,NNW,338,2.0,2.0,84,0.00,SCT,,0.00,0.0,WeatherDisplay:10.37,2013-02-25 01:35:00,
2013-02-25 03:40:00,54.5,49.8,30.03,North,0,2.9,2.9,84,0.00,SCT,,0.00,0.0,WeatherDisplay:10.37,2013-02-25 01:40:00,
2013-02-25 03:45:00,54.5,49.8,30.03,NNE,22,3.5,3.5,84,0.00,SCT,,0.00,0.0,WeatherDisplay:10.37,2013-02-25 01:45:00,
2013-02-25 03:50:00,54.7,49.9,30.02,NNW,338,4.6,4.6,84,0.00,SCT,,0.00,0.0,WeatherDisplay:10.37,2013-02-25 01:50:00,
2013-02-25 03:55:00,54.9,50.1,30.02,North,0,3.5,3.5,84,0.00,SCT,,0.00,0.0,WeatherDisplay:10.37,2013-02-25 01:55:00,
2013-02-25 04:00:00,55.0,50.0,30.02,North,0,3.6,3.6,83,0.00,SCT,,0.00,0.0,WeatherDisplay:10.37,2013-02-25 02:00:00,
2013-02-25 04:05:00,55.0,50.0,30.02,North,0,2.3,2.3,83,0.00,CLR,,0.00,0.0,WeatherDisplay:10.37,2013-02-25 02:05:00,
2013-02-25 04:10:00,55.0,50.0,30.02,NNW,338,2.3,2.3,83,0.00,CLR,,0.00,0.0,WeatherDisplay:10.37,2013-02-25 02:10:00,
2013-02-25 04:15:00,54.9,49.8,30.03,NNW,338,0.0,0.0,83,0.00,CLR,,0.00,0.0,WeatherDisplay:10.37,2013-02-25 02:15:00,
2013-02-25 04:20:00,54.7,49.6,30.03,North,0,2.3,2.3,83,0.00,CLR,,0.00,0.0,WeatherDisplay:10.37,2013-02-25 02:20:00,
2013-02-25 04:25:00,54.7,49.6,30.03,North,0,0.0,0.0,83,0.00,CLR,,0.00,0.0,WeatherDisplay:10.37,2013-02-25 02:25:00,
2013-02-25 04:30:00,54.7,49.6,30.02,North,0,3.5,3.5,83,0.00,CLR,,0.00,0.0,WeatherDisplay:10.37,2013-02-25 02:30:00,
2013-02-25 04:35:00,54.7,49.6,30.03,West,270,0.0,0.0,83,0.00,CLR,,0.00,0.0,WeatherDisplay:10.37,2013-02-25 02:35:00,
2013-02-25 04:40:00,54.7,49.6,30.03,North,0,3.5,3.5,83,0.00,CLR,,0.00,0.0,WeatherDisplay:10.37,2013-02-25 02:40:00,
2013-02-25 04:45:00,54.7,49.6,30.03,NNW,338,0.0,0.0,83,0.00,CLR,,0.00,0.0,WeatherDisplay:10.37,2013-02-25 02:45:00,
2013-02-25 04:50:00,54.7,49.6,30.03,NNW,338,1.1,1.1,83,0.00,CLR,,0.00,0.0,WeatherDisplay:10.37,2013-02-25 02:50:00,
2013-02-25 04:55:00,54.7,49.6,30.03,NW,315,1.1,1.1,83,0.00,CLR,,0.00,0.0,WeatherDisplay:10.37,2013-02-25 02:55:00,
2013-02-25 05:00:00,54.5,49.4,30.03,NW,315,0.0,0.0,83,0.00,CLR,,0.00,0.0,WeatherDisplay:10.37,2013-02-25 03:00:00,
2013-02-25 05:05:00,54.5,49.4,30.03,North,0,2.3,2.3,83,0.00,CLR,,0.00,0.0,WeatherDisplay:10.37,2013-02-25 03:05:00,
2013-02-25 05:10:00,54.5,49.8,30.03,NNW,338,1.1,0.0,84,0.00,CLR,,0.00,0.0,WeatherDisplay:10.37,2013-02-25 03:10:00,
2013-02-25 05:15:00,54.5,49.8,30.03,North,0,2.3,2.3,84,0.00,CLR,,0.00,0.0,WeatherDisplay:10.37,2013-02-25 03:15:00,
2013-02-25 05:20:00,54.3,49.6,30.03,NNW,338,2.3,2.3,84,0.00,CLR,,0.00,0.0,WeatherDisplay:10.37,2013-02-25 03:20:00,
2013-02-25 05:25:00,54.3,49.6,30.03,NNW,338,1.1,1.1,84,0.00,CLR,,0.00,0.0,WeatherDisplay:10.37,2013-02-25 03:25:00,
2013-02-25 05:30:00,54.3,49.6,30.03,North,0,3.5,3.5,84,0.00,CLR,,0.00,0.0,WeatherDisplay:10.37,2013-02-25 03:30:00,
2013-02-25 05:35:00,54.3,49.6,30.03,NNW,338,1.1,1.1,84,0.00,CLR,,0.00,0.0,WeatherDisplay:10.37,2013-02-25 03:35:00,
2013-02-25 05:40:00,54.5,50.1,30.03,NNW,338,3.5,3.5,85,0.00,CLR,,0.00,0.0,WeatherDisplay:10.37,2013-02-25 03:40:00,
2013-02-25 05:45:00,54.5,50.1,30.03,NW,315,1.1,0.0,85,0.00,CLR,,0.00,0.0,WeatherDisplay:10.37,2013-02-25 03:45:00,
2013-02-25 05:50:00,54.5,50.1,30.03,North,0,0.0,0.0,85,0.00,CLR,,0.00,0.0,WeatherDisplay:10.37,2013-02-25 03:50:00,
2013-02-25 05:55:00,54.5,50.1,30.03,North,0,2.3,2.3,85,0.00,CLR,,0.00,0.0,WeatherDisplay:10.37,2013-02-25 03:55:00,
2013-02-25 06:00:00,54.5,49.8,30.03,NNW,338,1.1,1.1,84,0.00,CLR,,0.00,0.0,WeatherDisplay:10.37,2013-02-25 04:00:00,
2013-02-25 06:05:00,54.5,49.8,30.04,North,0,3.5,3.5,84,0.00,CLR,,0.00,0.0,WeatherDisplay:10.37,2013-02-25 04:05:00,
2013-02-25 06:10:00,54.7,49.9,30.04,NNW,338,2.3,2.3,84,0.00,CLR,,0.00,0.0,WeatherDisplay:10.37,2013-02-25 04:10:00,
2013-02-25 06:15:00,54.7,49.9,30.03,NNW,338,0.0,0.0,84,0.00,CLR,,0.00,0.0,WeatherDisplay:10.37,2013-02-25 04:15:00,
2013-02-25 06:20:00,54.7,49.9,30.03,NNW,338,2.3,2.3,84,0.00,FEW,,0.00,0.0,WeatherDisplay:10.37,2013-02-25 04:20:00,
2013-02-25 06:25:00,54.9,50.1,30.04,NNW,338,1.1,1.1,84,0.00,FEW,,0.00,0.0,WeatherDisplay:10.37,2013-02-25 04:25:00,
2013-02-25 06:30:00,54.9,50.1,30.04,NNW,338,0.0,0.0,84,0.00,FEW,,0.00,0.0,WeatherDisplay:10.37,2013-02-25 04:30:00,
2013-02-25 06:35:00,54.7,49.9,30.04,NNE,22,0.0,0.0,84,0.00,SCT,,0.00,0.0,WeatherDisplay:10.37,2013-02-25 04:35:00,
2013-02-25 06:40:00,54.7,49.9,30.04,NNE,22,0.0,0.0,84,0.00,SCT,,0.00,0.0,WeatherDisplay:10.37,2013-02-25 04:40:00,
2013-02-25 06:45:00,54.5,49.8,30.04,ENE,68,0.0,0.0,84,0.00,SCT,,0.00,0.0,WeatherDisplay:10.37,2013-02-25 04:45:00,
2013-02-25 06:50:00,54.3,49.6,30.04,North,0,1.1,1.1,84,0.00,SCT,,0.00,0.0,WeatherDisplay:10.37,2013-02-25 04:50:00,
2013-02-25 06:55:00,54.5,49.4,30.04,North,0,2.3,2.3,83,0.00,SCT,,0.00,0.0,WeatherDisplay:10.37,2013-02-25 04:55:00,
2013-02-25 07:00:00,54.5,49.4,30.04,North,0,2.3,2.3,83,0.00,SCT,,0.00,0.0,WeatherDisplay:10.37,2013-02-25 05:00:00,
2013-02-25 07:05:00,54.5,49.4,30.04,North,0,1.1,1.1,83,0.00,SCT,,0.00,0.0,WeatherDisplay:10.37,2013-02-25 05:05:00,
2013-02-25 07:10:00,54.5,49.4,30.04,NW,315,2.3,2.3,83,0.00,SCT,,0.00,0.0,WeatherDisplay:10.37,2013-02-25 05:10:00,
2013-02-25 07:15:00,54.5,49.4,30.04,NNW,338,1.1,1.1,83,0.00,SCT,,0.00,0.0,WeatherDisplay:10.37,2013-02-25 05:15:00,
2013-02-25 07:20:00,54.5,49.4,30.04,NNW,338,2.3,2.3,83,0.00,SCT,,0.00,0.0,WeatherDisplay:10.37,2013-02-25 05:20:00,
2013-02-25 07:25:00,54.7,49.6,30.04,North,0,1.1,0.0,83,0.00,SCT,,0.00,0.0,WeatherDisplay:10.37,2013-02-25 05:25:00,
2013-02-25 07:30:00,54.7,49.6,30.04,North,0,1.3,1.3,83,0.00,SCT,,0.00,0.0,WeatherDisplay:10.37,2013-02-25 05:30:00,
2013-02-25 07:35:00,54.7,49.3,30.04,NNW,338,3.5,3.5,82,0.00,SCT,,0.00,0.0,WeatherDisplay:10.37,2013-02-25 05:35:00,
2013-02-25 07:40:00,54.9,49.5,30.04,NNE,22,0.0,0.0,82,0.00,SCT,,0.00,0.0,WeatherDisplay:10.37,2013-02-25 05:40:00,
2013-02-25 07:45:00,55.0,49.6,30.04,ENE,68,0.0,0.0,82,0.00,SCT,,0.00,0.0,WeatherDisplay:10.37,2013-02-25 05:45:00,
2013-02-25 07:50:00,55.0,49.3,30.04,NE,45,0.0,0.0,81,0.00,SCT,,0.00,0.0,WeatherDisplay:10.37,2013-02-25 05:50:00,
2013-02-25 07:55:00,55.0,49.3,30.04,NNW,338,2.3,2.3,81,0.00,SCT,,0.00,0.0,WeatherDisplay:10.37,2013-02-25 05:55:00,
2013-02-25 08:00:00,55.2,49.5,30.04,North,0,0.0,0.0,81,0.00,SCT,,0.00,0.0,WeatherDisplay:10.37,2013-02-25 06:00:00,
2013-02-25 08:05:00,55.2,49.5,30.04,NNE,22,2.3,2.3,81,0.00,FEW,,0.00,0.0,WeatherDisplay:10.37,2013-02-25 06:05:00,
2013-02-25 08:10:00,55.6,49.8,30.04,North,0,0.0,0.0,81,0.00,FEW,,0.00,0.0,WeatherDisplay:10.37,2013-02-25 06:10:00,
2013-02-25 08:15:00,56.1,50.4,30.04,NNE,22,0.0,0.0,81,0.00,FEW,,0.00,0.0,WeatherDisplay:10.37,2013-02-25 06:15:00,
2013-02-25 08:20:00,56.5,50.4,30.05,NNW,338,2.3,2.3,80,0.00,FEW,,0.00,0.0,WeatherDisplay:10.37,2013-02-25 06:20:00,
2013-02-25 08:25:00,57.0,50.9,30.04,North,0,0.0,0.0,80,0.00,FEW,,0.00,0.0,WeatherDisplay:10.37,2013-02-25 06:25:00,
2013-02-25 08:30:00,57.6,51.1,30.05,NE,45,0.0,0.0,79,0.00,FEW,,0.00,0.0,WeatherDisplay:10.37,2013-02-25 06:30:00,
2013-02-25 08:35:00,57.9,51.4,30.05,ENE,68,1.1,1.1,79,0.00,FEW,,0.00,0.0,WeatherDisplay:10.37,2013-02-25 06:35:00,
2013-02-25 08:40:00,58.5,51.3,30.05,North,0,2.3,2.3,77,0.00,FEW,,0.00,0.0,WeatherDisplay:10.37,2013-02-25 06:40:00,
2013-02-25 08:45:00,58.8,51.6,30.05,ENE,68,0.0,0.0,77,0.00,FEW,,0.00,0.0,WeatherDisplay:10.37,2013-02-25 06:45:00,
2013-02-25 08:50:00,59.4,51.8,30.05,ENE,68,2.3,2.3,76,0.00,FEW,,0.00,0.0,WeatherDisplay:10.37,2013-02-25 06:50:00,
2013-02-25 08:55:00,59.7,51.8,30.05,North,0,2.3,2.3,75,0.00,FEW,,0.00,0.0,WeatherDisplay:10.37,2013-02-25 06:55:00,
2013-02-25 09:00:00,59.9,51.2,30.05,North,0,2.3,2.3,73,0.00,FEW,,0.00,0.0,WeatherDisplay:10.37,2013-02-25 07:00:00,
2013-02-25 09:05:00,60.1,51.4,30.05,East,90,2.3,2.3,73,0.00,FEW,,0.00,0.0,WeatherDisplay:10.37,2013-02-25 07:05:00,
2013-02-25 09:10:00,60.8,52.1,30.05,NNE,22,0.0,0.0,73,0.00,FEW,,0.00,0.0,WeatherDisplay:10.37,2013-02-25 07:10:00,
2013-02-25 09:15:00,61.3,51.9,30.05,North,0,2.3,2.3,71,0.00,FEW,,0.00,0.0,WeatherDisplay:10.37,2013-02-25 07:15:00,
2013-02-25 09:20:00,61.7,51.8,30.05,North,0,2.3,2.3,70,0.00,FEW,,0.00,0.0,WeatherDisplay:10.37,2013-02-25 07:20:00,
2013-02-25 09:25:00,62.2,52.3,30.05,NE,45,0.0,0.0,70,0.00,FEW,,0.00,0.0,WeatherDisplay:10.37,2013-02-25 07:25:00,
2013-02-25 09:30:00,63.0,52.6,30.05,ENE,68,3.5,3.5,69,0.00,FEW,,0.00,0.0,WeatherDisplay:10.37,2013-02-25 07:30:00,
2013-02-25 09:35:00,63.0,52.2,30.05,North,0,0.0,0.0,68,0.00,FEW,,0.00,0.0,WeatherDisplay:10.37,2013-02-25 07:35:00,
2013-02-25 09:40:00,63.5,51.9,30.05,East,90,0.0,0.0,66,0.00,FEW,,0.00,0.0,WeatherDisplay:10.37,2013-02-25 07:40:00,
2013-02-25 09:45:00,64.0,52.4,30.05,ESE,112,0.0,0.0,66,0.00,FEW,,0.00,0.0,WeatherDisplay:10.37,2013-02-25 07:45:00,
2013-02-25 09:50:00,65.3,52.8,30.05,ESE,112,0.0,0.0,64,0.00,FEW,,0.00,0.0,WeatherDisplay:10.37,2013-02-25 07:50:00,
2013-02-25 09:55:00,66.0,52.6,30.05,ESE,112,4.6,4.6,62,0.00,FEW,,0.00,0.0,WeatherDisplay:10.37,2013-02-25 07:55:00,
2013-02-25 10:00:00,65.3,51.5,30.05,South,180,2.5,2.5,61,0.00,FEW,,0.00,0.0,WeatherDisplay:10.37,2013-02-25 08:00:00,
2013-02-25 10:05:00,64.9,51.2,30.04,SSE,158,6.9,6.9,61,0.00,FEW,,0.00,0.0,WeatherDisplay:10.37,2013-02-25 08:05:00,
2013-02-25 10:10:00,64.8,51.4,30.04,South,180,5.8,5.8,62,0.00,FEW,,0.00,0.0,WeatherDisplay:10.37,2013-02-25 08:10:00,
2013-02-25 10:15:00,64.6,50.8,30.04,South,180,8.5,8.5,61,0.00,FEW,,0.00,0.0,WeatherDisplay:10.37,2013-02-25 08:15:00,
2013-02-25 10:20:00,64.8,50.5,30.04,SSE,158,4.6,4.6,60,0.00,FEW,,0.00,0.0,WeatherDisplay:10.37,2013-02-25 08:20:00,
2013-02-25 10:25:00,64.9,50.7,30.04,SSE,158,12.7,12.7,60,0.00,FEW,,0.00,0.0,WeatherDisplay:10.37,2013-02-25 08:25:00,
2013-02-25 10:30:00,65.1,50.9,30.04,SSE,158,10.4,10.4,60,0.00,FEW,,0.00,0.0,WeatherDisplay:10.37,2013-02-25 08:30:00,
2013-02-25 10:35:00,65.1,50.9,30.04,SSW,202,6.9,6.9,60,0.00,FEW,,0.00,0.0,WeatherDisplay:10.37,2013-02-25 08:35:00,
2013-02-25 10:40:00,65.5,51.2,30.04,South,180,8.1,8.1,60,0.00,FEW,,0.00,0.0,WeatherDisplay:10.37,2013-02-25 08:40:00,
2013-02-25 10:45:00,65.5,50.8,30.04,SE,135,6.9,6.9,59,0.00,FEW,,0.00,0.0,WeatherDisplay:10.37,2013-02-25 08:45:00,
2013-02-25 10:50:00,65.3,49.7,30.04,SSE,158,13.8,13.8,57,0.00,FEW,,0.00,0.0,WeatherDisplay:10.37,2013-02-25 08:50:00,
2013-02-25 10:55:00,65.5,50.3,30.03,SSE,158,6.9,6.9,58,0.00,FEW,,0.00,0.0,WeatherDisplay:10.37,2013-02-25 08:55:00,
2013-02-25 11:00:00,65.5,50.3,30.03,South,180,11.5,11.5,58,0.00,FEW,,0.00,0.0,WeatherDisplay:10.37,2013-02-25 09:00:00,
2013-02-25 11:05:00,65.7,50.5,30.03,South,180,6.9,6.9,58,0.00,FEW,,0.00,0.0,WeatherDisplay:10.37,2013-02-25 09:05:00,
2013-02-25 11:10:00,66.0,50.8,30.03,SSW,202,11.5,11.5,58,0.00,FEW,,0.00,0.0,WeatherDisplay:10.37,2013-02-25 09:10:00,
2013-02-25 11:15:00,66.2,51.4,30.03,WSW,248,10.4,10.4,59,0.00,FEW,,0.00,0.0,WeatherDisplay:10.37,2013-02-25 09:15:00,
2013-02-25 11:20:00,66.0,51.3,30.03,SSE,158,5.8,5.8,59,0.00,FEW,,0.00,0.0,WeatherDisplay:10.37,2013-02-25 09:20:00,
2013-02-25 11:25:00,66.2,50.5,30.03,SSW,202,9.2,9.2,57,0.00,FEW,,0.00,0.0,WeatherDisplay:10.37,2013-02-25 09:25:00,
2013-02-25 11:30:00,66.6,50.4,30.03,WSW,248,3.5,3.5,56,0.00,FEW,,0.00,0.0,WeatherDisplay:10.37,2013-02-25 09:30:00,
2013-02-25 11:35:00,66.7,50.1,30.03,SE,135,10.4,10.4,55,0.00,FEW,,0.00,0.0,WeatherDisplay:10.37,2013-02-25 09:35:00,
2013-02-25 11:40:00,66.9,50.2,30.03,SW,225,9.2,9.2,55,0.00,FEW,,0.00,0.0,WeatherDisplay:10.37,2013-02-25 09:40:00,
2013-02-25 11:45:00,67.1,49.9,30.03,SW,225,6.9,6.9,54,0.00,FEW,,0.00,0.0,WeatherDisplay:10.37,2013-02-25 09:45:00,
2013-02-25 11:50:00,67.1,49.9,30.03,SSE,158,9.2,9.2,54,0.00,FEW,,0.00,0.0,WeatherDisplay:10.37,2013-02-25 09:50:00,
2013-02-25 11:55:00,67.3,49.6,30.02,SSE,158,3.5,3.5,53,0.00,FEW,,0.00,0.0,WeatherDisplay:10.37,2013-02-25 09:55:00,
2013-02-25 12:00:00,67.8,50.1,30.02,SSW,202,5.8,5.8,53,0.00,FEW,,0.00,0.0,WeatherDisplay:10.37,2013-02-25 10:00:00,
2013-02-25 12:05:00,67.8,50.1,30.02,SSE,158,6.9,6.9,53,0.00,SCT,,0.00,0.0,WeatherDisplay:10.37,2013-02-25 10:05:00,
2013-02-25 12:10:00,68.5,50.2,30.02,South,180,3.5,3.5,52,0.00,SCT,,0.00,0.0,WeatherDisplay:10.37,2013-02-25 10:10:00,
2013-02-25 12:15:00,68.2,50.4,30.01,South,180,11.5,11.5,53,0.00,SCT,,0.00,0.0,WeatherDisplay:10.37,2013-02-25 10:15:00,
2013-02-25 12:20:00,67.8,50.1,30.01,SSE,158,8.1,8.1,53,0.00,SCT,,0.00,0.0,WeatherDisplay:10.37,2013-02-25 10:20:00,
2013-02-25 12:29:00,67.8,50.1,30.01,SSW,202,10.4,10.4,53,0.00,SCT,,0.00,0.0,WeatherDisplay:10.37,2013-02-25 10:29:00,
2013-02-25 12:34:00,68.2,49.9,30.01,South,180,8.1,8.1,52,0.00,SCT,,0.00,0.0,WeatherDisplay:10.37,2013-02-25 10:34:00,
2013-02-25 12:39:00,68.2,49.9,30.01,SE,135,4.6,4.6,52,0.00,SCT,,0.00,0.0,WeatherDisplay:10.37,2013-02-25 10:39:00,
2013-02-25 12:44:00,68.5,49.7,30.01,SSE,158,6.9,7.1,51,0.00,SCT,,0.00,0.0,WeatherDisplay:10.37,2013-02-25 10:44:00,
2013-02-25 12:49:00,68.2,49.4,30.01,SSE,158,11.6,11.6,51,0.00,SCT,,0.00,0.0,WeatherDisplay:10.37,2013-02-25 10:49:00,
2013-02-25 12:54:00,67.8,49.5,30.00,SSE,158,4.6,5.5,52,0.00,SCT,,0.00,0.0,WeatherDisplay:10.37,2013-02-25 10:54:00,
2013-02-25 12:59:00,68.2,49.4,30.00,East,90,5.1,5.1,51,0.00,SCT,,0.00,0.0,WeatherDisplay:10.37,2013-02-25 10:59:00,
2013-02-25 13:04:00,68.0,49.2,30.00,South,180,13.0,13.0,51,0.00,SCT,,0.00,0.0,WeatherDisplay:10.37,2013-02-25 11:04:00,
2013-02-25 13:09:00,67.8,49.0,30.00,SE,135,5.8,5.8,51,0.00,SCT,,0.00,0.0,WeatherDisplay:10.37,2013-02-25 11:09:00,
2013-02-25 13:14:00,67.8,49.0,30.00,SE,135,11.5,11.5,51,0.00,SCT,,0.00,0.0,WeatherDisplay:10.37,2013-02-25 11:14:00,
2013-02-25 13:19:00,67.8,49.0,30.00,South,180,9.2,9.2,51,0.00,SCT,,0.00,0.0,WeatherDisplay:10.37,2013-02-25 11:19:00,
2013-02-25 13:24:00,68.2,49.4,30.00,SE,135,8.1,8.1,51,0.00,SCT,,0.00,0.0,WeatherDisplay:10.37,2013-02-25 11:24:00,
2013-02-25 13:29:00,67.6,48.9,30.00,SE,135,9.4,9.4,51,0.00,SCT,,0.00,0.0,WeatherDisplay:10.37,2013-02-25 11:29:00,
2013-02-25 13:34:00,67.6,49.4,30.00,ESE,112,12.1,12.1,52,0.00,FEW,,0.00,0.0,WeatherDisplay:10.37,2013-02-25 11:34:00,
2013-02-25 13:48:00,67.8,49.5,29.99,SSE,158,6.9,6.9,52,0.00,FEW,,0.00,0.0,WeatherDisplay:10.37,2013-02-25 11:48:00,
2013-02-25 13:53:00,67.8,49.0,29.98,South,180,9.2,9.2,51,0.00,FEW,,0.00,0.0,WeatherDisplay:10.37,2013-02-25 11:53:00,
2013-02-25 13:58:00,68.2,49.4,29.98,SSE,158,12.7,12.7,51,0.00,FEW,,0.00,0.0,WeatherDisplay:10.37,2013-02-25 11:58:00,
2013-02-25 14:03:00,67.8,48.5,29.98,East,90,8.1,8.1,50,0.00,FEW,,0.00,0.0,WeatherDisplay:10.37,2013-02-25 12:03:00,
2013-02-25 14:08:00,67.8,49.0,29.98,SW,225,10.4,10.4,51,0.00,FEW,,0.00,0.0,WeatherDisplay:10.37,2013-02-25 12:08:00,
2013-02-25 14:13:00,68.2,49.9,29.98,South,180,12.7,12.7,52,0.00,FEW,,0.00,0.0,WeatherDisplay:10.37,2013-02-25 12:13:00,
2013-02-25 14:18:00,68.5,50.2,29.98,SSE,158,4.2,4.2,52,0.00,FEW,,0.00,0.0,WeatherDisplay:10.37,2013-02-25 12:18:00,
2013-02-25 14:23:00,68.4,49.5,29.98,South,180,9.2,9.2,51,0.00,FEW,,0.00,0.0,WeatherDisplay:10.37,2013-02-25 12:23:00,
2013-02-25 14:28:00,68.2,49.4,29.97,SSE,158,5.8,5.8,51,0.00,FEW,,0.00,0.0,WeatherDisplay:10.37,2013-02-25 12:28:00,
2013-02-25 14:33:00,68.0,49.2,29.98,SW,225,8.1,8.1,51,0.00,FEW,,0.00,0.0,WeatherDisplay:10.37,2013-02-25 12:33:00,
2013-02-25 14:38:00,68.2,48.8,29.97,SSE,158,6.9,6.9,50,0.00,FEW,,0.00,0.0,WeatherDisplay:10.37,2013-02-25 12:38:00,
2013-02-25 14:43:00,68.4,49.5,29.96,SE,135,2.3,2.3,51,0.00,FEW,,0.00,0.0,WeatherDisplay:10.37,2013-02-25 12:43:00,
2013-02-25 14:48:00,68.7,49.3,29.96,SSE,158,13.8,13.8,50,0.00,FEW,,0.00,0.0,WeatherDisplay:10.37,2013-02-25 12:48:00,
2013-02-25 14:53:00,68.7,49.9,29.97,SSW,202,6.9,6.9,51,0.00,FEW,,0.00,0.0,WeatherDisplay:10.37,2013-02-25 12:53:00,
2013-02-25 14:58:00,68.5,50.2,29.96,SW,225,10.7,10.7,52,0.00,FEW,,0.00,0.0,WeatherDisplay:10.37,2013-02-25 12:58:00,
2013-02-25 15:03:00,68.2,50.9,29.97,ESE,112,8.1,8.1,54,0.00,FEW,,0.00,0.0,WeatherDisplay:10.37,2013-02-25 13:03:00,
2013-02-25 15:08:00,67.6,50.9,29.97,ESE,112,6.9,6.9,55,0.00,FEW,,0.00,0.0,WeatherDisplay:10.37,2013-02-25 13:08:00,
2013-02-25 15:13:00,67.1,50.9,29.97,South,180,8.1,8.1,56,0.00,FEW,,0.00,0.0,WeatherDisplay:10.37,2013-02-25 13:13:00,
2013-02-25 15:18:00,66.7,50.5,29.97,SE,135,4.6,4.6,56,0.00,FEW,,0.00,0.0,WeatherDisplay:10.37,2013-02-25 13:18:00,
2013-02-25 15:24:00,66.7,50.5,29.97,NE,45,5.8,5.8,56,0.00,FEW,,0.00,0.0,WeatherDisplay:10.37,2013-02-25 13:24:00,
2013-02-25 15:29:00,66.6,50.4,29.97,SSE,158,8.0,8.0,56,0.00,FEW,,0.00,0.0,WeatherDisplay:10.37,2013-02-25 13:29:00,
2013-02-25 15:34:00,66.2,50.0,29.97,SE,135,1.1,1.1,56,0.00,FEW,,0.00,0.0,WeatherDisplay:10.37,2013-02-25 13:34:00,
2013-02-25 15:39:00,66.0,49.4,29.96,South,180,10.4,10.4,55,0.00,FEW,,0.00,0.0,WeatherDisplay:10.37,2013-02-25 13:39:00,
2013-02-25 15:44:00,65.8,49.2,29.97,SSE,158,5.8,5.8,55,0.00,FEW,,0.00,0.0,WeatherDisplay:10.37,2013-02-25 13:44:00,
2013-02-25 15:49:00,65.7,50.0,29.97,SSW,202,3.5,3.5,57,0.00,FEW,,0.00,0.0,WeatherDisplay:10.37,2013-02-25 13:49:00,
2013-02-25 15:54:00,65.7,50.0,29.97,SE,135,10.4,10.4,57,0.00,FEW,,0.00,0.0,WeatherDisplay:10.37,2013-02-25 13:54:00,
2013-02-25 15:59:00,65.7,50.5,29.97,ESE,112,3.5,3.5,58,0.00,FEW,,0.00,0.0,WeatherDisplay:10.37,2013-02-25 13:59:00,
2013-02-25 16:04:00,65.7,50.0,29.97,ESE,112,6.0,6.0,57,0.00,BKN,,0.00,0.0,WeatherDisplay:10.37,2013-02-25 14:04:00,
2013-02-25 16:11:00,65.3,49.7,29.97,South,180,4.6,4.6,57,0.00,BKN,,0.00,0.0,WeatherDisplay:10.37,2013-02-25 14:11:00,
2013-02-25 16:16:00,65.1,49.0,29.97,SE,135,8.1,8.1,56,0.00,BKN,,0.00,0.0,WeatherDisplay:10.37,2013-02-25 14:16:00,
2013-02-25 16:22:00,65.1,49.0,29.97,South,180,9.2,9.2,56,0.00,BKN,,0.00,0.0,WeatherDisplay:10.37,2013-02-25 14:22:00,
2013-02-25 16:27:00,64.9,48.9,29.97,South,180,9.2,9.2,56,0.00,BKN,,0.00,0.0,WeatherDisplay:10.37,2013-02-25 14:27:00,
2013-02-25 16:32:00,64.9,48.9,29.97,SE,135,6.9,6.9,56,0.00,BKN,,0.00,0.0,WeatherDisplay:10.37,2013-02-25 14:32:00,
2013-02-25 16:37:00,64.6,48.5,29.97,South,180,13.4,13.4,56,0.00,BKN,,0.00,0.0,WeatherDisplay:10.37,2013-02-25 14:37:00,
2013-02-25 16:42:00,64.2,48.7,29.96,SE,135,9.2,9.2,57,0.00,BKN,,0.00,0.0,WeatherDisplay:10.37,2013-02-25 14:42:00,
2013-02-25 16:47:00,64.2,49.1,29.96,South,180,10.4,10.4,58,0.00,BKN,,0.00,0.0,WeatherDisplay:10.37,2013-02-25 14:47:00,
2013-02-25 16:52:00,64.6,49.5,29.96,SSW,202,9.2,9.2,58,0.00,BKN,,0.00,0.0,WeatherDisplay:10.37,2013-02-25 14:52:00,
2013-02-25 16:57:00,64.6,49.5,29.95,SSW,202,10.4,10.4,58,0.00,BKN,,0.00,0.0,WeatherDisplay:10.37,2013-02-25 14:57:00,
2013-02-25 17:02:00,64.4,49.3,29.95,SSE,158,12.3,12.3,58,0.00,BKN,,0.00,0.0,WeatherDisplay:10.37,2013-02-25 15:02:00,
2013-02-25 17:07:00,64.0,49.4,29.96,SSE,158,11.5,11.5,59,0.00,BKN,,0.00,0.0,WeatherDisplay:10.37,2013-02-25 15:07:00,
2013-02-25 17:12:00,63.7,49.5,29.95,SSE,158,9.2,9.2,60,0.00,BKN,,0.00,0.0,WeatherDisplay:10.37,2013-02-25 15:12:00,
2013-02-25 17:17:00,63.5,49.8,29.96,SE,135,5.8,5.8,61,0.00,BKN,,0.00,0.0,WeatherDisplay:10.37,2013-02-25 15:17:00,
2013-02-25 17:22:00,63.3,49.6,29.95,South,180,13.8,13.8,61,0.00,BKN,,0.00,0.0,WeatherDisplay:10.37,2013-02-25 15:22:00,
2013-02-25 17:27:00,63.1,49.5,29.95,SSW,202,12.7,12.7,61,0.00,BKN,,0.00,0.0,WeatherDisplay:10.37,2013-02-25 15:27:00,
2013-02-25 17:32:00,62.8,49.6,29.96,South,180,15.0,15.0,62,0.00,BKN,,0.00,0.0,WeatherDisplay:10.37,2013-02-25 15:32:00,
2013-02-25 17:37:00,62.4,49.2,29.96,SE,135,12.7,12.7,62,0.00,BKN,,0.00,0.0,WeatherDisplay:10.37,2013-02-25 15:37:00,
2013-02-25 17:42:00,62.4,49.7,29.96,SSE,158,11.5,11.5,63,0.00,BKN,,0.00,0.0,WeatherDisplay:10.37,2013-02-25 15:42:00,
2013-02-25 17:47:00,62.2,49.5,29.95,South,180,11.2,11.2,63,0.00,BKN,,0.00,0.0,WeatherDisplay:10.37,2013-02-25 15:47:00,
2013-02-25 17:52:00,61.9,49.6,29.95,SW,225,5.8,5.8,64,0.00,BKN,,0.00,0.0,WeatherDisplay:10.37,2013-02-25 15:52:00,
2013-02-25 17:57:00,61.9,49.6,29.96,SSW,202,10.4,10.4,64,0.00,BKN,,0.00,0.0,WeatherDisplay:10.37,2013-02-25 15:57:00,
2013-02-25 18:02:00,61.7,49.8,29.96,South,180,5.8,5.8,65,0.00,BKN,,0.00,0.0,WeatherDisplay:10.37,2013-02-25 16:02:00,
2013-02-25 18:07:00,61.5,49.6,29.95,SSE,158,12.7,12.7,65,0.00,BKN,,0.00,0.0,WeatherDisplay:10.37,2013-02-25 16:07:00,
2013-02-25 18:12:00,61.5,50.1,29.96,SSE,158,5.8,5.8,66,0.00,BKN,,0.00,0.0,WeatherDisplay:10.37,2013-02-25 16:12:00,
2013-02-25 18:17:00,61.3,50.3,29.96,SSE,158,9.2,9.2,67,0.00,BKN,,0.00,0.0,WeatherDisplay:10.37,2013-02-25 16:17:00,
2013-02-25 18:22:00,61.2,50.1,29.96,SSW,202,8.1,8.1,67,0.00,BKN,,0.00,0.0,WeatherDisplay:10.37,2013-02-25 16:22:00,
2013-02-25 18:27:00,61.2,50.1,29.96,West,270,6.9,6.9,67,0.00,BKN,,0.00,0.0,WeatherDisplay:10.37,2013-02-25 16:27:00,
2013-02-25 18:32:00,61.0,49.9,29.97,SSW,202,4.6,4.6,67,0.00,BKN,,0.00,0.0,WeatherDisplay:10.37,2013-02-25 16:32:00,
2013-02-25 18:37:00,61.0,49.9,29.97,South,180,4.6,4.6,67,0.00,BKN,,0.00,0.0,WeatherDisplay:10.37,2013-02-25 16:37:00,
2013-02-25 18:42:00,60.8,50.2,29.98,WSW,248,8.1,8.1,68,0.00,BKN,,0.00,0.0,WeatherDisplay:10.37,2013-02-25 16:42:00,
2013-02-25 18:47:00,60.6,50.0,29.97,SSE,158,4.6,6.2,68,0.00,BKN,,0.00,0.0,WeatherDisplay:10.37,2013-02-25 16:47:00,
2013-02-25 18:52:00,60.6,50.4,29.97,SW,225,5.8,5.8,69,0.00,BKN,,0.00,0.0,WeatherDisplay:10.37,2013-02-25 16:52:00,
2013-02-25 18:57:00,60.6,50.4,29.97,SW,225,5.8,5.8,69,0.00,BKN,,0.00,0.0,WeatherDisplay:10.37,2013-02-25 16:57:00,
2013-02-25 19:02:00,60.4,50.2,29.97,SW,225,7.4,7.4,69,0.00,SCT,,0.00,0.0,WeatherDisplay:10.37,2013-02-25 17:02:00,
2013-02-25 19:07:00,60.4,50.6,29.98,South,180,6.9,6.9,70,0.00,SCT,,0.00,0.0,WeatherDisplay:10.37,2013-02-25 17:07:00,
2013-02-25 19:12:00,60.4,50.6,29.97,SSE,158,3.5,3.5,70,0.00,SCT,,0.00,0.0,WeatherDisplay:10.37,2013-02-25 17:12:00,
2013-02-25 19:17:00,60.1,50.3,29.97,South,180,4.6,4.6,70,0.00,SCT,,0.00,0.0,WeatherDisplay:10.37,2013-02-25 17:17:00,
2013-02-25 19:22:00,60.1,50.3,29.97,South,180,8.1,8.1,70,0.00,SCT,,0.00,0.0,WeatherDisplay:10.37,2013-02-25 17:22:00,
2013-02-25 19:27:00,59.9,50.1,29.97,South,180,6.9,6.9,70,0.00,SCT,,0.00,0.0,WeatherDisplay:10.37,2013-02-25 17:27:00,
2013-02-25 19:32:00,59.9,50.5,29.97,South,180,10.4,10.4,71,0.00,SCT,,0.00,0.0,WeatherDisplay:10.37,2013-02-25 17:32:00,
2013-02-25 19:37:00,59.9,50.1,29.97,SSE,158,4.6,5.0,70,0.00,SCT,,0.00,0.0,WeatherDisplay:10.37,2013-02-25 17:37:00,
2013-02-25 19:42:00,59.9,50.1,29.97,SSE,158,6.9,6.9,70,0.00,SCT,,0.00,0.0,WeatherDisplay:10.37,2013-02-25 17:42:00,
2013-02-25 19:47:00,59.7,49.9,29.97,South,180,5.8,5.8,70,0.00,SCT,,0.00,0.0,WeatherDisplay:10.37,2013-02-25 17:47:00,
2013-02-25 19:52:00,59.7,50.3,29.96,South,180,5.8,5.8,71,0.00,SCT,,0.00,0.0,WeatherDisplay:10.37,2013-02-25 17:52:00,
2013-02-25 19:57:00,59.5,50.1,29.97,SW,225,8.1,8.1,71,0.00,SCT,,0.00,0.0,WeatherDisplay:10.37,2013-02-25 17:57:00,
2013-02-25 20:02:00,59.5,50.1,29.97,SSW,202,4.6,6.5,71,0.00,SCT,,0.00,0.0,WeatherDisplay:10.37,2013-02-25 18:02:00,
2013-02-25 20:07:00,59.5,50.1,29.97,South,180,6.9,6.9,71,0.00,SCT,,0.00,0.0,WeatherDisplay:10.37,2013-02-25 18:07:00,
2013-02-25 20:12:00,59.5,50.5,29.98,SE,135,8.1,8.1,72,0.00,SCT,,0.00,0.0,WeatherDisplay:10.37,2013-02-25 18:12:00,
2013-02-25 20:17:00,59.4,50.3,29.98,SSE,158,12.7,12.7,72,0.00,FEW,,0.00,0.0,WeatherDisplay:10.37,2013-02-25 18:17:00,
2013-02-25 20:22:00,59.4,50.3,29.98,South,180,9.2,9.2,72,0.00,FEW,,0.00,0.0,WeatherDisplay:10.37,2013-02-25 18:22:00,
2013-02-25 20:27:00,59.2,50.5,29.98,WSW,248,11.5,11.5,73,0.00,FEW,,0.00,0.0,WeatherDisplay:10.37,2013-02-25 18:27:00,
2013-02-25 20:32:00,59.2,50.5,29.97,SW,225,10.4,10.4,73,0.00,FEW,,0.00,0.0,WeatherDisplay:10.37,2013-02-25 18:32:00,
2013-02-25 20:37:00,59.2,50.5,29.98,ENE,68,6.9,6.9,73,0.00,FEW,,0.00,0.0,WeatherDisplay:10.37,2013-02-25 18:37:00,
2013-02-25 20:42:00,59.2,50.9,29.98,SW,225,9.8,9.8,74,0.00,FEW,,0.00,0.0,WeatherDisplay:10.37,2013-02-25 18:42:00,
2013-02-25 20:47:00,59.2,50.9,29.98,SSE,158,10.1,10.1,74,0.00,FEW,,0.00,0.0,WeatherDisplay:10.37,2013-02-25 18:47:00,
2013-02-25 20:52:00,59.2,50.9,29.97,South,180,11.5,11.5,74,0.00,FEW,,0.00,0.0,WeatherDisplay:10.37,2013-02-25 18:52:00,
2013-02-25 20:57:00,59.0,51.1,29.97,SSW,202,13.2,13.2,75,0.00,FEW,,0.00,0.0,WeatherDisplay:10.37,2013-02-25 18:57:00,
2013-02-25 21:02:00,59.0,51.1,29.97,West,270,15.0,15.0,75,0.00,FEW,,0.00,0.0,WeatherDisplay:10.37,2013-02-25 19:02:00,
2013-02-25 21:07:00,59.0,51.1,29.97,SSW,202,8.1,9.6,75,0.00,FEW,,0.00,0.0,WeatherDisplay:10.37,2013-02-25 19:07:00,
2013-02-25 21:12:00,59.0,51.1,29.97,South,180,11.5,11.5,75,0.00,FEW,,0.00,0.0,WeatherDisplay:10.37,2013-02-25 19:12:00,
2013-02-25 21:17:00,59.0,51.4,29.97,South,180,11.5,11.5,76,0.00,SCT,,0.00,0.0,WeatherDisplay:10.37,2013-02-25 19:17:00,
2013-02-25 21:22:00,59.0,51.4,29.98,SSW,202,13.0,13.0,76,0.00,SCT,,0.00,0.0,WeatherDisplay:10.37,2013-02-25 19:22:00,
2013-02-25 21:27:00,59.2,51.6,29.98,SSE,158,6.9,6.9,76,0.00,SCT,,0.00,0.0,WeatherDisplay:10.37,2013-02-25 19:27:00,
2013-02-25 21:32:00,59.2,51.6,29.97,SE,135,9.2,9.2,76,0.00,SCT,,0.00,0.0,WeatherDisplay:10.37,2013-02-25 19:32:00,
2013-02-25 21:37:00,59.2,51.6,29.97,SW,225,8.1,8.1,76,0.00,SCT,,0.00,0.0,WeatherDisplay:10.37,2013-02-25 19:37:00,
2013-02-25 21:42:00,59.2,51.6,29.97,SSE,158,6.9,6.9,76,0.00,SCT,,0.00,0.0,WeatherDisplay:10.37,2013-02-25 19:42:00,
2013-02-25 21:47:00,59.2,51.6,29.97,SE,135,8.1,8.1,76,0.00,SCT,,0.00,0.0,WeatherDisplay:10.37,2013-02-25 19:47:00,
2013-02-25 21:52:00,59.2,51.6,29.97,South,180,12.7,12.7,76,0.00,SCT,,0.00,0.0,WeatherDisplay:10.37,2013-02-25 19:52:00,
2013-02-25 21:57:00,59.2,51.6,29.98,SW,225,8.1,8.1,76,0.00,SCT,,0.00,0.0,WeatherDisplay:10.37,2013-02-25 19:57:00,
2013-02-25 22:02:00,59.2,51.6,29.97,SSE,158,5.8,5.8,76,0.00,SCT,,0.00,0.0,WeatherDisplay:10.37,2013-02-25 20:02:00,
2013-02-25 22:07:00,59.2,51.6,29.97,South,180,8.1,8.1,76,0.00,SCT,,0.00,0.0,WeatherDisplay:10.37,2013-02-25 20:07:00,
2013-02-25 22:12:00,59.2,52.0,29.97,SSW,202,11.5,11.5,77,0.00,SCT,,0.00,0.0,WeatherDisplay:10.37,2013-02-25 20:12:00,
2013-02-25 22:17:00,59.2,51.6,29.97,South,180,9.2,9.2,76,0.00,SCT,,0.00,0.0,WeatherDisplay:10.37,2013-02-25 20:17:00,
2013-02-25 22:22:00,59.2,52.0,29.96,SSW,202,12.7,12.7,77,0.00,SCT,,0.00,0.0,WeatherDisplay:10.37,2013-02-25 20:22:00,
2013-02-25 22:27:00,59.2,52.0,29.96,SSE,158,9.2,9.2,77,0.00,SCT,,0.00,0.0,WeatherDisplay:10.37,2013-02-25 20:27:00,
2013-02-25 22:32:00,59.2,52.0,29.96,SSE,158,13.8,13.8,77,0.00,SCT,,0.00,0.0,WeatherDisplay:10.37,2013-02-25 20:32:00,
2013-02-25 22:37:00,59.2,52.0,29.97,South,180,16.1,16.1,77,0.00,SCT,,0.00,0.0,WeatherDisplay:10.37,2013-02-25 20:37:00,
2013-02-25 22:42:00,59.2,52.0,29.97,SSW,202,11.5,11.5,77,0.00,SCT,,0.00,0.0,WeatherDisplay:10.37,2013-02-25 20:42:00,
2013-02-25 22:47:00,59.0,51.8,29.96,South,180,10.4,10.4,77,0.00,SCT,,0.00,0.0,WeatherDisplay:10.37,2013-02-25 20:47:00,
2013-02-25 22:52:00,58.8,51.6,29.97,ESE,112,16.1,16.1,77,0.00,SCT,,0.00,0.0,WeatherDisplay:10.37,2013-02-25 20:52:00,
2013-02-25 22:57:00,58.8,52.0,29.96,SSE,158,5.8,5.9,78,0.00,SCT,,0.00,0.0,WeatherDisplay:10.37,2013-02-25 20:57:00,
2013-02-25 23:02:00,58.8,52.0,29.96,SSW,202,14.1,14.1,78,0.00,SCT,,0.00,0.0,WeatherDisplay:10.37,2013-02-25 21:02:00,
2013-02-25 23:07:00,58.8,52.0,29.96,SSE,158,11.5,11.5,78,0.00,SCT,,0.00,0.0,WeatherDisplay:10.37,2013-02-25 21:07:00,
2013-02-25 23:12:00,58.8,52.0,29.97,SSW,202,15.0,15.0,78,0.00,SCT,,0.00,0.0,WeatherDisplay:10.37,2013-02-25 21:12:00,
2013-02-25 23:17:00,58.8,52.3,29.97,South,180,11.5,11.5,79,0.00,SCT,,0.00,0.0,WeatherDisplay:10.37,2013-02-25 21:17:00,
2013-02-25 23:22:00,58.8,52.3,29.97,SW,225,10.4,10.4,79,0.00,SCT,,0.00,0.0,WeatherDisplay:10.37,2013-02-25 21:22:00,
2013-02-25 23:27:00,58.8,52.3,29.97,South,180,17.3,17.3,79,0.00,SCT,,0.00,0.0,WeatherDisplay:10.37,2013-02-25 21:27:00,
2013-02-25 23:32:00,58.8,52.3,29.97,SSW,202,10.5,10.5,79,0.00,SCT,,0.00,0.0,WeatherDisplay:10.37,2013-02-25 21:32:00,
2013-02-25 23:37:00,58.8,52.3,29.97,SSW,202,6.9,6.9,79,0.00,SCT,,0.00,0.0,WeatherDisplay:10.37,2013-02-25 21:37:00,
2013-02-25 23:42:00,58.8,52.3,29.97,SW,225,4.6,4.6,79,0.00,SCT,,0.00,0.0,WeatherDisplay:10.37,2013-02-25 21:42:00,
2013-02-25 23:47:00,58.8,52.3,29.97,South,180,6.9,6.9,79,0.00,SCT,,0.00,0.0,WeatherDisplay:10.37,2013-02-25 21:47:00,
2013-02-25 23:52:00,58.8,52.3,29.97,SSW,202,6.9,6.9,79,0.00,SCT,,0.00,0.0,WeatherDisplay:10.37,2013-02-25 21:52:00,
2013-02-25 23:57:00,58.8,52.3,29.97,SSE,158,9.2,9.2,79,0.00,SCT,,0.00,0.0,WeatherDisplay:10.37,2013-02-25 21:57:00,